createdAt,value
2018-04-08T00:02:08.750Z,25.33
2018-04-08T00:04:36.306Z,25.60
2018-04-08T00:07:03.784Z,24.17
2018-04-08T00:09:31.338Z,27.63
2018-04-08T00:11:58.832Z,23.60
2018-04-08T00:14:26.274Z,21.83
2018-04-08T00:16:53.782Z,21.83
2018-04-08T00:19:21.276Z,29.50
2018-04-08T00:21:49.067Z,26.70
2018-04-08T00:24:17.758Z,27.70
2018-04-08T00:26:45.310Z,26.23
2018-04-08T00:29:12.748Z,25.23
2018-04-08T00:31:40.347Z,23.23
2018-04-08T00:34:07.915Z,24.23
2018-04-08T00:36:35.547Z,24.17
2018-04-08T00:39:03.726Z,21.80
2018-04-08T00:41:31.186Z,24.20
2018-04-08T00:43:58.731Z,23.50
2018-04-08T00:46:26.352Z,23.90
2018-04-08T00:48:53.862Z,25.47
2018-04-08T00:51:21.392Z,25.23
2018-04-08T00:56:43.968Z,24.03
2018-04-08T00:59:11.558Z,21.53
2018-04-08T01:01:39.070Z,26.33
2018-04-08T01:04:06.565Z,22.93
2018-04-08T01:06:34.011Z,28.90
2018-04-08T01:09:01.470Z,21.67
2018-04-08T01:11:28.943Z,24.60
2018-04-08T01:13:56.377Z,23.60
2018-04-08T01:16:23.862Z,23.13
2018-04-08T01:18:51.833Z,24.03
2018-04-08T01:21:19.301Z,24.73
2018-04-08T01:23:46.843Z,23.00
2018-04-08T01:26:14.291Z,24.77
2018-04-08T01:28:41.756Z,24.60
2018-04-08T01:31:09.259Z,27.17
2018-04-08T01:33:36.862Z,24.80
2018-04-08T01:36:04.321Z,23.20
2018-04-08T01:38:31.797Z,19.43
2018-04-08T01:40:59.275Z,20.90
2018-04-08T01:43:26.740Z,24.40
2018-04-08T01:45:54.252Z,21.23
2018-04-08T01:48:21.734Z,20.80
2018-04-08T01:50:49.185Z,22.53
2018-04-08T01:53:16.692Z,25.00
2018-04-08T01:55:44.262Z,23.57
2018-04-08T01:58:11.783Z,19.80
2018-04-08T02:00:39.228Z,24.10
2018-04-08T02:03:06.721Z,19.30
2018-04-08T02:05:35.726Z,27.20
2018-04-08T02:08:03.196Z,21.80
2018-04-08T02:10:30.700Z,21.07
2018-04-08T02:12:58.227Z,23.03
2018-04-08T02:15:25.692Z,21.77
2018-04-08T02:17:53.128Z,23.10
2018-04-08T02:20:20.606Z,21.47
2018-04-08T02:22:48.055Z,20.43
2018-04-08T02:25:15.528Z,23.10
2018-04-08T02:27:42.982Z,19.37
2018-04-08T02:30:10.456Z,20.70
2018-04-08T02:32:37.965Z,21.53
2018-04-08T02:35:05.461Z,19.30
2018-04-08T02:37:32.960Z,22.83
2018-04-08T02:40:00.368Z,22.43
2018-04-08T02:42:27.885Z,20.70
2018-04-08T02:44:55.356Z,31.20
2018-04-08T02:47:22.823Z,26.30
2018-04-08T02:49:50.285Z,21.43
2018-04-08T02:52:17.746Z,17.53
2018-04-08T02:54:45.243Z,19.63
2018-04-08T02:57:12.733Z,18.67
2018-04-08T02:59:40.168Z,20.33
2018-04-08T03:02:07.640Z,18.60
2018-04-08T03:04:35.126Z,24.77
2018-04-08T03:07:02.602Z,21.63
2018-04-08T03:09:30.066Z,19.80
2018-04-08T03:11:57.515Z,20.67
2018-04-08T03:14:25.055Z,21.23
2018-04-08T03:16:52.519Z,21.53
2018-04-08T03:19:19.998Z,22.67
2018-04-08T03:21:47.580Z,20.43
2018-04-08T03:24:15.041Z,18.97
2018-04-08T03:26:42.937Z,16.60
2018-04-08T03:29:10.410Z,20.53
2018-04-08T03:31:37.851Z,18.20
2018-04-08T03:34:05.437Z,23.23
2018-04-08T03:36:33.003Z,20.03
2018-04-08T03:39:00.571Z,22.67
2018-04-08T03:41:28.914Z,19.43
2018-04-08T03:43:56.394Z,20.00
2018-04-08T03:46:23.860Z,24.83
2018-04-08T03:48:51.309Z,18.77
2018-04-08T03:51:19.042Z,19.40
2018-04-08T03:53:46.518Z,19.17
2018-04-08T03:56:14.031Z,18.80
2018-04-08T03:58:43.465Z,20.63
2018-04-08T04:01:10.935Z,19.47
2018-04-08T04:03:38.475Z,21.23
2018-04-08T04:06:05.961Z,20.50
2018-04-08T04:08:33.442Z,17.97
2018-04-08T04:11:00.935Z,19.93
2018-04-08T04:13:28.394Z,21.10
2018-04-08T04:15:55.846Z,18.97
2018-04-08T04:18:35.099Z,22.63
2018-04-08T04:21:14.320Z,18.30
2018-04-08T04:23:53.731Z,19.57
2018-04-08T04:26:31.523Z,21.27
2018-04-08T04:28:58.964Z,21.10
2018-04-08T04:31:26.426Z,25.37
2018-04-08T04:33:54.487Z,19.67
2018-04-08T04:36:21.955Z,18.60
2018-04-08T04:38:49.421Z,20.70
2018-04-08T04:41:16.947Z,21.70
2018-04-08T04:43:44.425Z,19.13
2018-04-08T04:46:11.913Z,19.20
2018-04-08T04:48:39.370Z,17.47
2018-04-08T04:51:06.798Z,18.27
2018-04-08T04:53:34.264Z,19.60
2018-04-08T04:56:01.697Z,19.30
2018-04-08T04:58:29.172Z,14.33
2018-04-08T05:00:56.613Z,21.37
2018-04-08T05:03:24.054Z,18.17
2018-04-08T05:05:51.510Z,18.23
2018-04-08T05:08:18.954Z,17.07
2018-04-08T05:10:46.427Z,18.60
2018-04-08T05:13:14.877Z,21.23
2018-04-08T05:15:42.343Z,19.63
2018-04-08T05:18:09.812Z,24.77
2018-04-08T05:20:37.321Z,22.20
2018-04-08T05:23:04.787Z,22.40
2018-04-08T05:25:32.201Z,19.90
2018-04-08T05:27:59.669Z,21.03
2018-04-08T05:30:27.103Z,19.23
2018-04-08T05:32:54.571Z,19.27
2018-04-08T05:35:22.016Z,18.33
2018-04-08T05:37:49.473Z,18.90
2018-04-08T05:40:16.962Z,24.47
2018-04-08T05:42:44.491Z,22.83
2018-04-08T05:45:11.940Z,18.07
2018-04-08T05:47:39.430Z,24.13
2018-04-08T05:50:06.867Z,22.20
2018-04-08T05:52:34.320Z,18.23
2018-04-08T05:55:01.781Z,19.93
2018-04-08T05:57:29.219Z,26.03
2018-04-08T05:59:56.788Z,20.00
2018-04-08T06:02:24.301Z,20.37
2018-04-08T06:04:51.874Z,21.97
2018-04-08T06:07:19.331Z,19.33
2018-04-08T06:09:46.797Z,19.90
2018-04-08T06:12:14.620Z,16.77
2018-04-08T06:14:42.199Z,20.87
2018-04-08T06:17:09.621Z,20.70
2018-04-08T06:19:37.117Z,18.20
2018-04-08T06:22:04.566Z,20.90
2018-04-08T06:24:32.039Z,20.03
2018-04-08T06:26:59.505Z,22.90
2018-04-08T06:29:26.980Z,24.60
2018-04-08T06:31:54.473Z,20.93
2018-04-08T06:34:22.033Z,19.27
2018-04-08T06:36:50.670Z,20.30
2018-04-08T06:39:18.120Z,18.50
2018-04-08T06:41:45.585Z,19.93
2018-04-08T06:44:13.197Z,19.57
2018-04-08T06:46:40.722Z,18.23
2018-04-08T06:49:08.188Z,18.40
2018-04-08T06:51:35.650Z,16.60
2018-04-08T06:54:03.286Z,17.90
2018-04-08T06:56:30.761Z,25.10
2018-04-08T06:58:58.206Z,19.90
2018-04-08T07:01:25.658Z,16.90
2018-04-08T07:03:53.090Z,20.03
2018-04-08T07:06:20.569Z,17.70
2018-04-08T07:08:48.007Z,18.87
2018-04-08T07:11:15.438Z,21.90
2018-04-08T07:13:43.386Z,21.63
2018-04-08T07:16:10.828Z,18.27
2018-04-08T07:18:38.322Z,19.07
2018-04-08T07:21:05.774Z,22.60
2018-04-08T07:23:33.332Z,18.70
2018-04-08T07:26:00.898Z,20.83
2018-04-08T07:28:28.351Z,18.73
2018-04-08T07:30:55.808Z,22.50
2018-04-08T07:33:23.308Z,20.50
2018-04-08T07:35:50.751Z,19.63
2018-04-08T07:38:18.228Z,17.30
2018-04-08T07:40:46.595Z,18.20
2018-04-08T07:43:14.217Z,19.10
2018-04-08T07:45:41.747Z,21.07
2018-04-08T07:48:09.202Z,19.70
2018-04-08T07:50:36.687Z,21.00
2018-04-08T07:53:04.165Z,24.00
2018-04-08T07:55:31.679Z,20.60
2018-04-08T07:57:59.100Z,21.17
2018-04-08T08:00:26.570Z,18.30
2018-04-08T08:02:54.067Z,18.37
2018-04-08T08:05:21.595Z,20.30
2018-04-08T08:07:49.025Z,17.83
2018-04-08T08:10:16.493Z,18.83
2018-04-08T08:12:44.000Z,19.90
2018-04-08T08:15:11.439Z,18.33
2018-04-08T08:17:38.928Z,17.73
2018-04-08T08:20:06.362Z,16.27
2018-04-08T08:22:33.884Z,20.50
2018-04-08T08:25:01.375Z,15.90
2018-04-08T08:27:28.852Z,22.17
2018-04-08T08:29:56.293Z,17.43
2018-04-08T08:32:23.780Z,21.10
2018-04-08T08:34:51.289Z,16.60
2018-04-08T08:37:18.770Z,16.83
2018-04-08T08:39:46.234Z,17.20
2018-04-08T08:42:13.726Z,21.00
2018-04-08T08:44:42.305Z,17.30
2018-04-08T08:47:09.952Z,18.03
2018-04-08T08:49:37.409Z,17.00
2018-04-08T08:52:04.847Z,17.83
2018-04-08T08:54:32.363Z,17.00
2018-04-08T08:56:59.797Z,17.87
2018-04-08T08:59:27.354Z,18.50
2018-04-08T09:01:54.808Z,20.23
2018-04-08T09:04:22.274Z,20.77
2018-04-08T09:06:49.763Z,20.60
2018-04-08T09:09:17.202Z,18.50
2018-04-08T09:11:44.660Z,21.47
2018-04-08T09:14:12.109Z,19.50
2018-04-08T09:16:39.566Z,15.90
2018-04-08T09:19:09.179Z,18.97
2018-04-08T09:24:46.976Z,22.63
2018-04-08T09:27:14.434Z,20.40
2018-04-08T09:29:41.923Z,18.77
2018-04-08T09:32:09.335Z,31.50
2018-04-08T09:34:36.791Z,26.40
2018-04-08T09:37:04.228Z,24.13
2018-04-08T09:39:31.693Z,20.37
2018-04-08T09:41:59.150Z,19.47
2018-04-08T09:44:26.612Z,20.93
2018-04-08T09:46:54.080Z,19.30
2018-04-08T09:49:21.530Z,24.40
2018-04-08T09:51:48.995Z,21.67
2018-04-08T09:54:16.436Z,22.10
2018-04-08T09:56:43.928Z,21.43
2018-04-08T09:59:11.376Z,19.20
2018-04-08T10:01:43.540Z,20.30
2018-04-08T10:04:10.994Z,22.80
2018-04-08T10:06:38.469Z,22.03
2018-04-08T10:09:06.695Z,20.67
2018-04-08T10:11:34.229Z,23.33
2018-04-08T10:14:01.665Z,19.57
2018-04-08T10:16:29.160Z,24.70
2018-04-08T10:18:56.656Z,20.63
2018-04-08T10:21:24.122Z,21.07
2018-04-08T10:23:52.167Z,18.93
2018-04-08T10:26:19.626Z,19.30
2018-04-08T10:28:47.232Z,19.40
2018-04-08T10:31:14.777Z,22.30
2018-04-08T10:33:42.233Z,21.13
2018-04-08T10:36:09.717Z,19.70
2018-04-08T10:38:37.174Z,17.93
2018-04-08T10:41:04.707Z,19.37
2018-04-08T10:43:32.177Z,21.03
2018-04-08T10:45:59.613Z,20.10
2018-04-08T10:48:27.101Z,20.07
2018-04-08T10:50:55.236Z,20.80
2018-04-08T10:53:22.806Z,22.00
2018-04-08T10:55:50.319Z,18.43
2018-04-08T10:58:17.767Z,16.40
2018-04-08T11:00:45.269Z,18.97
2018-04-08T11:03:12.722Z,19.07
2018-04-08T11:05:40.164Z,17.40
2018-04-08T11:08:07.648Z,17.57
2018-04-08T11:10:35.486Z,17.67
2018-04-08T11:13:02.964Z,18.20
2018-04-08T11:15:30.406Z,17.60
2018-04-08T11:17:57.882Z,13.33
2018-04-08T11:20:25.339Z,21.90
2018-04-08T11:22:52.814Z,18.17
2018-04-08T11:25:20.261Z,16.10
2018-04-08T11:27:47.938Z,17.97
2018-04-08T11:30:15.455Z,16.03
2018-04-08T11:32:43.033Z,18.23
2018-04-08T11:35:10.507Z,14.90
2018-04-08T11:37:37.960Z,14.17
2018-04-08T11:40:05.420Z,15.50
2018-04-08T11:42:32.894Z,14.23
2018-04-08T11:45:00.355Z,18.37
2018-04-08T11:47:27.849Z,21.87
2018-04-08T11:49:55.417Z,18.60
2018-04-08T11:52:22.923Z,21.10
2018-04-08T11:54:50.427Z,16.43
2018-04-08T11:57:17.926Z,16.30
2018-04-08T11:59:45.421Z,20.00
2018-04-08T12:02:12.854Z,19.53
2018-04-08T12:04:40.333Z,17.20
2018-04-08T12:07:07.798Z,16.70
2018-04-08T12:09:35.298Z,15.40
2018-04-08T12:12:02.784Z,16.77
2018-04-08T12:14:30.217Z,16.77
2018-04-08T12:16:57.658Z,17.73
2018-04-08T12:19:25.183Z,15.70
2018-04-08T12:21:53.588Z,17.40
2018-04-08T12:24:21.058Z,15.20
2018-04-08T12:26:49.435Z,17.47
2018-04-08T12:29:16.933Z,15.23
2018-04-08T12:31:44.393Z,16.67
2018-04-08T12:34:11.854Z,17.27
2018-04-08T12:36:39.405Z,15.97
2018-04-08T12:39:06.898Z,18.33
2018-04-08T12:41:34.422Z,14.53
2018-04-08T12:44:01.896Z,14.33
2018-04-08T12:46:29.492Z,16.80
2018-04-08T12:48:56.943Z,18.80
2018-04-08T12:51:25.268Z,16.70
2018-04-08T12:53:53.438Z,17.00
2018-04-08T12:56:20.867Z,14.10
2018-04-08T12:58:48.311Z,14.07
2018-04-08T13:01:15.788Z,15.70
2018-04-08T13:03:43.222Z,17.07
2018-04-08T13:06:10.733Z,15.30
2018-04-08T13:08:38.195Z,16.50
2018-04-08T13:11:05.665Z,16.73
2018-04-08T13:13:33.135Z,14.43
2018-04-08T13:16:00.622Z,12.77
2018-04-08T13:18:28.115Z,16.07
2018-04-08T13:20:55.580Z,12.93
2018-04-08T13:23:23.119Z,15.33
2018-04-08T13:25:50.581Z,15.73
2018-04-08T13:28:18.057Z,14.63
2018-04-08T13:30:45.509Z,12.77
2018-04-08T13:33:12.950Z,14.20
2018-04-08T13:35:40.430Z,14.37
2018-04-08T13:38:08.447Z,13.83
2018-04-08T13:40:35.891Z,16.30
2018-04-08T13:43:03.384Z,12.07
2018-04-08T13:45:31.152Z,13.90
2018-04-08T13:47:58.629Z,15.13
2018-04-08T13:50:26.468Z,13.53
2018-04-08T13:52:53.945Z,16.90
2018-04-08T13:55:21.390Z,11.43
2018-04-08T13:57:48.832Z,9.90
2018-04-08T14:00:16.304Z,10.83
2018-04-08T14:02:43.769Z,13.67
2018-04-08T14:05:11.233Z,11.20
2018-04-08T14:07:38.730Z,8.30
2018-04-08T14:10:06.190Z,9.80
2018-04-08T14:12:33.614Z,9.57
2018-04-08T14:15:01.073Z,8.13
2018-04-08T14:17:28.536Z,5.93
2018-04-08T14:19:55.973Z,9.23
2018-04-08T14:22:23.713Z,6.13
2018-04-08T14:24:51.287Z,6.57
2018-04-08T14:27:18.717Z,6.00
2018-04-08T14:29:46.144Z,8.77
2018-04-08T14:32:13.664Z,9.80
2018-04-08T14:34:41.113Z,8.00
2018-04-08T14:37:08.585Z,7.73
2018-04-08T14:39:36.009Z,7.10
2018-04-08T14:42:03.521Z,7.70
2018-04-08T14:44:31.042Z,7.97
2018-04-08T14:46:58.735Z,6.60
2018-04-08T14:49:26.185Z,6.77
2018-04-08T14:51:53.628Z,8.87
2018-04-08T14:54:21.101Z,12.07
2018-04-08T14:56:48.732Z,8.33
2018-04-08T14:59:16.202Z,8.17
2018-04-08T15:01:46.665Z,12.47
2018-04-08T15:04:11.250Z,11.83
2018-04-08T15:06:38.700Z,9.73
2018-04-08T15:09:06.201Z,9.40
2018-04-08T15:11:34.257Z,10.13
2018-04-08T15:14:01.711Z,9.10
2018-04-08T15:16:29.273Z,8.13
2018-04-08T15:18:56.849Z,7.30
2018-04-08T15:21:24.453Z,8.53
2018-04-08T15:23:51.961Z,8.80
2018-04-08T15:26:19.411Z,7.97
2018-04-08T15:28:46.882Z,6.93
2018-04-08T15:31:15.748Z,10.77
2018-04-08T15:33:43.234Z,8.80
2018-04-08T15:36:10.759Z,9.10
2018-04-08T15:38:38.408Z,13.80
2018-04-08T15:41:05.994Z,10.77
2018-04-08T15:43:33.458Z,8.93
2018-04-08T15:46:00.935Z,9.27
2018-04-08T15:48:28.453Z,10.27
2018-04-08T15:50:55.895Z,12.03
2018-04-08T15:53:23.365Z,11.27
2018-04-08T15:55:50.815Z,12.13
2018-04-08T15:58:18.286Z,9.77
2018-04-08T16:00:45.767Z,10.27
2018-04-08T16:03:13.267Z,10.67
2018-04-08T16:05:40.702Z,10.00
2018-04-08T16:08:08.158Z,9.50
2018-04-08T16:11:11.332Z,11.53
2018-04-08T16:13:38.875Z,15.73
2018-04-08T16:16:06.352Z,11.13
2018-04-08T16:18:33.867Z,14.60
2018-04-08T16:21:01.292Z,9.37
2018-04-08T16:23:28.823Z,8.70
2018-04-08T16:25:56.272Z,8.70
2018-04-08T16:28:23.712Z,7.83
2018-04-08T16:30:51.164Z,10.87
2018-04-08T16:33:18.628Z,11.17
2018-04-08T16:35:46.156Z,12.10
2018-04-08T16:38:13.762Z,8.90
2018-04-08T16:40:41.351Z,10.50
2018-04-08T16:43:08.935Z,9.33
2018-04-08T16:45:36.554Z,10.57
2018-04-08T16:48:04.024Z,9.67
2018-04-08T16:50:31.496Z,12.07
2018-04-08T16:52:59.130Z,9.20
2018-04-08T16:55:26.651Z,20.97
2018-04-08T16:57:54.097Z,11.40
2018-04-08T17:00:21.587Z,8.20
2018-04-08T17:02:49.040Z,9.30
2018-04-08T17:05:16.506Z,9.90
2018-04-08T17:07:44.114Z,11.37
2018-04-08T17:10:11.581Z,11.83
2018-04-08T17:12:39.120Z,12.20
2018-04-08T17:15:06.579Z,9.57
2018-04-08T17:17:34.045Z,11.50
2018-04-08T17:20:01.522Z,9.80
2018-04-08T17:22:28.934Z,12.00
2018-04-08T17:24:56.415Z,11.10
2018-04-08T17:27:23.870Z,12.27
2018-04-08T17:29:51.356Z,11.80
2018-04-08T17:32:18.834Z,11.00
2018-04-08T17:34:47.224Z,9.70
2018-04-08T17:37:14.752Z,9.07
2018-04-08T17:39:42.232Z,12.60
2018-04-08T17:42:09.777Z,12.60
2018-04-08T17:44:37.305Z,8.87
2018-04-08T17:47:04.902Z,16.73
2018-04-08T17:49:32.347Z,10.50
2018-04-08T17:51:59.815Z,15.57
2018-04-08T17:54:27.652Z,10.13
2018-04-08T17:56:55.101Z,14.90
2018-04-08T17:59:22.574Z,19.73
2018-04-08T18:01:50.071Z,17.67
2018-04-08T18:04:17.547Z,19.23
2018-04-08T18:06:45.002Z,16.57
2018-04-08T18:09:12.431Z,23.03
2018-04-08T18:11:39.899Z,16.80
2018-04-08T18:14:07.401Z,26.77
2018-04-08T18:16:34.903Z,31.10
2018-04-08T18:19:02.340Z,29.03
2018-04-08T18:21:29.777Z,22.07
2018-04-08T18:23:57.263Z,22.73
2018-04-08T18:26:24.775Z,28.23
2018-04-08T18:28:52.207Z,37.50
2018-04-08T18:31:19.851Z,34.47
2018-04-08T18:33:47.369Z,30.73
2018-04-08T18:36:14.832Z,23.87
2018-04-08T18:38:42.348Z,19.37
2018-04-08T18:41:09.795Z,16.03
2018-04-08T18:43:37.304Z,17.03
2018-04-08T18:46:04.772Z,18.83
2018-04-08T18:48:32.227Z,16.43
2018-04-08T18:50:59.654Z,15.60
2018-04-08T18:53:27.612Z,17.20
2018-04-08T18:55:55.106Z,19.60
2018-04-08T18:58:22.609Z,17.60
2018-04-08T19:00:50.063Z,16.77
2018-04-08T19:03:17.567Z,20.50
2018-04-08T19:05:49.057Z,16.93
2018-04-08T19:08:16.541Z,18.00
2018-04-08T19:10:43.984Z,12.77
2018-04-08T19:13:11.423Z,19.70
2018-04-08T19:15:38.954Z,17.40
2018-04-08T19:18:06.474Z,23.13
2018-04-08T19:20:34.079Z,18.73
2018-04-08T19:23:01.546Z,23.87
2018-04-08T19:25:29.191Z,26.50
2018-04-08T19:27:56.760Z,27.17
2018-04-08T19:30:24.321Z,26.97
2018-04-08T19:32:51.757Z,24.97
2018-04-08T19:35:19.258Z,18.60
2018-04-08T19:37:46.710Z,20.87
2018-04-08T19:40:14.182Z,17.30
2018-04-08T19:42:42.233Z,19.30
2018-04-08T19:45:09.674Z,17.00
2018-04-08T19:47:37.139Z,15.97
2018-04-08T19:50:04.650Z,15.70
2018-04-08T19:52:32.154Z,15.47
2018-04-08T19:54:59.599Z,16.90
2018-04-08T19:57:27.106Z,16.97
2018-04-08T19:59:54.580Z,17.17
2018-04-08T20:02:22.051Z,17.83
2018-04-08T20:04:49.545Z,18.50
2018-04-08T20:07:17.005Z,18.10
2018-04-08T20:09:44.855Z,16.60
2018-04-08T20:12:12.396Z,16.37
2018-04-08T20:14:39.984Z,18.53
2018-04-08T20:17:07.606Z,18.47
2018-04-08T20:19:35.218Z,16.93
2018-04-08T20:22:02.725Z,18.00
2018-04-08T20:24:30.206Z,18.30
2018-04-08T20:26:57.666Z,20.90
2018-04-08T20:29:25.213Z,19.47
2018-04-08T20:31:52.597Z,22.77
2018-04-08T20:34:20.062Z,22.10
2018-04-08T20:36:47.515Z,24.77
2018-04-08T20:39:15.047Z,20.80
2018-04-08T20:41:42.514Z,18.67
2018-04-08T20:44:11.023Z,18.50
2018-04-08T20:46:38.473Z,19.10
2018-04-08T20:49:05.974Z,22.47
2018-04-08T20:51:33.439Z,24.40
2018-04-08T20:54:00.872Z,22.90
2018-04-08T20:56:28.366Z,17.77
2018-04-08T20:58:56.680Z,16.87
2018-04-08T21:01:24.315Z,21.20
2018-04-08T21:03:51.837Z,23.90
2018-04-08T21:06:19.275Z,16.17
2018-04-08T21:08:46.738Z,17.97
2018-04-08T21:11:14.186Z,17.03
2018-04-08T21:16:15.479Z,18.17
2018-04-08T21:18:43.020Z,16.97
2018-04-08T21:21:10.474Z,21.57
2018-04-08T21:23:37.946Z,16.47
2018-04-08T21:26:05.381Z,20.57
2018-04-08T21:28:32.837Z,21.30
2018-04-08T21:31:00.334Z,20.40
2018-04-08T21:33:27.806Z,20.87
2018-04-08T21:35:55.264Z,17.40
2018-04-08T21:38:22.723Z,18.87
2018-04-08T21:40:50.193Z,23.97
2018-04-08T21:43:17.620Z,28.57
2018-04-08T21:45:45.089Z,18.17
2018-04-08T21:48:12.523Z,23.37
2018-04-08T21:50:40.072Z,18.63
2018-04-08T21:53:07.511Z,24.73
2018-04-08T21:55:34.947Z,23.93
2018-04-08T21:58:02.400Z,19.50
2018-04-08T22:00:29.831Z,19.10
2018-04-08T22:02:57.282Z,16.50
2018-04-08T22:05:24.741Z,17.50
2018-04-08T22:07:52.200Z,20.33
2018-04-08T22:10:19.620Z,15.13
2018-04-08T22:12:47.089Z,18.03
2018-04-08T22:15:14.528Z,17.50
2018-04-08T22:17:42.042Z,18.60
2018-04-08T22:20:09.506Z,17.83
2018-04-08T22:22:36.967Z,17.07
2018-04-08T22:25:04.400Z,17.10
2018-04-08T22:27:32.694Z,16.83
2018-04-08T22:30:00.139Z,16.00
2018-04-08T22:32:27.601Z,21.53
2018-04-08T22:34:55.049Z,30.63
2018-04-08T22:37:22.471Z,19.07
2018-04-08T22:39:49.947Z,20.07
2018-04-08T22:42:17.385Z,20.67
2018-04-08T22:44:44.815Z,18.13
2018-04-08T22:47:12.375Z,19.57
2018-04-08T22:49:39.830Z,17.00
2018-04-08T22:52:07.294Z,18.53
2018-04-08T22:54:34.848Z,18.90
2018-04-08T22:57:02.275Z,17.57
2018-04-08T22:59:29.735Z,21.27
2018-04-08T23:01:57.203Z,17.33
2018-04-08T23:04:24.632Z,17.23
2018-04-08T23:06:52.138Z,16.57
2018-04-08T23:09:19.778Z,19.40
2018-04-08T23:11:47.393Z,22.20
2018-04-08T23:14:14.893Z,22.27
2018-04-08T23:16:43.174Z,18.70
2018-04-08T23:19:10.598Z,20.67
2018-04-08T23:21:38.059Z,28.70
2018-04-08T23:24:05.550Z,17.80
2018-04-08T23:26:33.015Z,17.10
2018-04-08T23:29:00.489Z,17.47
2018-04-08T23:31:27.918Z,20.30
2018-04-08T23:33:55.382Z,19.67
2018-04-08T23:36:22.820Z,18.23
2018-04-08T23:38:50.300Z,17.87
2018-04-08T23:41:17.757Z,19.40
2018-04-08T23:43:45.226Z,19.73
2018-04-08T23:46:12.656Z,18.50
2018-04-08T23:48:40.141Z,21.83
2018-04-08T23:51:07.583Z,19.97
2018-04-08T23:53:35.039Z,18.60
2018-04-08T23:56:02.504Z,19.60
2018-04-08T23:58:29.955Z,21.30
